Terminal Aerodrome Forecast
Issued by NWS Wichita, KS

Home | Current Version | Previous Version | Text Only | Print | Product List | Glossary Off
Versions: 1 2 3 4 5 6 7 8 9 10 11 12

000
FTUS43 KICT 231140
TAFICT
TAF
KICT 231140Z 2312/2412 22005KT P6SM SCT250
     FM231400 VRB05KT P6SM FEW250
     FM240200 20005KT P6SM SCT250=

USA.gov is the U.S. government's official web portal to all federal, state and local government web resources and services.